createdAt,value
2024-01-20T00:00:16.084Z,102606.09
2024-01-20T00:02:43.741Z,102607.88
2024-01-20T00:05:12.088Z,102614.03
2024-01-20T00:07:39.009Z,102621.97
2024-01-20T00:10:11.603Z,102619.41
2024-01-20T00:12:40.033Z,102614.97
2024-01-20T00:15:07.568Z,102609.69
2024-01-20T00:17:34.547Z,102612.31
2024-01-20T00:20:01.261Z,102614.97
2024-01-20T00:22:27.948Z,102610.63
2024-01-20T00:24:54.699Z,102614.97
2024-01-20T00:27:21.845Z,102615.06
2024-01-20T00:29:48.794Z,102615.06
2024-01-20T00:32:15.926Z,102610.63
2024-01-20T00:34:55.348Z,102611.56
2024-01-20T00:37:28.892Z,102610.63
2024-01-20T00:39:55.346Z,102609.78
2024-01-20T00:42:21.793Z,102607.97
2024-01-20T00:44:48.415Z,102610.72
2024-01-20T00:47:14.963Z,102611.56
2024-01-20T00:49:41.676Z,102606.28
2024-01-20T00:52:09.237Z,102605.41
2024-01-20T00:54:35.718Z,102606.28
2024-01-20T00:57:02.206Z,102605.41
2024-01-20T00:59:28.627Z,102604.56
2024-01-20T01:01:55.074Z,102609.03
2024-01-20T01:04:21.669Z,102614.34
2024-01-20T01:06:49.824Z,102611.69
2024-01-20T01:09:16.567Z,102612.50
2024-01-20T01:11:43.069Z,102623.94
2024-01-20T01:14:09.598Z,102613.38
2024-01-20T01:16:36.117Z,102619.63
2024-01-20T01:19:03.034Z,102616.00
2024-01-20T01:21:29.592Z,102609.03
2024-01-20T01:23:56.124Z,102615.16
2024-01-20T01:26:23.748Z,102612.63
2024-01-20T01:28:50.448Z,102618.78
2024-01-20T01:31:16.993Z,102612.63
2024-01-20T01:33:43.461Z,102630.22
2024-01-20T01:36:11.017Z,102631.03
2024-01-20T01:38:37.610Z,102625.88
2024-01-20T01:41:04.271Z,102638.25
2024-01-20T01:43:30.760Z,102641.75
2024-01-20T01:45:57.346Z,102638.25
2024-01-20T01:48:24.870Z,102644.41
2024-01-20T01:50:53.077Z,102645.34
2024-01-20T01:53:20.593Z,102653.28
2024-01-20T01:55:48.356Z,102653.28
2024-01-20T01:58:15.168Z,102649.78
2024-01-20T02:00:42.730Z,102652.44
2024-01-20T02:03:10.876Z,102657.72
2024-01-20T02:05:37.597Z,102647.16
2024-01-20T02:08:05.046Z,102648.94
2024-01-20T02:10:32.593Z,102643.66
2024-01-20T02:13:00.704Z,102643.66
2024-01-20T02:15:28.416Z,102647.16
2024-01-20T02:17:56.393Z,102648.94
2024-01-20T02:20:24.858Z,102652.44
2024-01-20T02:22:51.876Z,102646.28
2024-01-20T02:25:18.562Z,102639.28
2024-01-20T02:27:45.082Z,102644.59
2024-01-20T02:30:11.955Z,102649.88
2024-01-20T02:32:38.515Z,102638.34
2024-01-20T02:35:05.378Z,102641.09
2024-01-20T02:37:31.824Z,102643.72
2024-01-20T02:39:58.893Z,102652.63
2024-01-20T02:42:25.447Z,102658.78
2024-01-20T02:44:52.139Z,102658.88
2024-01-20T02:47:19.647Z,102656.13
2024-01-20T02:49:46.402Z,102658.78
2024-01-20T02:52:13.237Z,102665.84
2024-01-20T02:54:39.785Z,102663.22
2024-01-20T02:57:06.457Z,102667.66
2024-01-20T02:59:32.952Z,102667.66
2024-01-20T03:02:00.496Z,102663.31
2024-01-20T03:04:27.012Z,102668.59
2024-01-20T03:06:53.452Z,102669.44
2024-01-20T03:09:19.938Z,102667.66
2024-01-20T03:11:46.459Z,102665.09
2024-01-20T03:14:13.893Z,102675.69
2024-01-20T03:16:40.514Z,102678.34
2024-01-20T03:19:07.677Z,102669.53
2024-01-20T03:21:35.264Z,102670.38
2024-01-20T03:24:02.010Z,102662.44
2024-01-20T03:26:28.810Z,102671.25
2024-01-20T03:28:55.307Z,102673.03
2024-01-20T03:31:22.078Z,102678.34
2024-01-20T03:33:48.600Z,102681.91
2024-01-20T03:36:15.134Z,102685.44
2024-01-20T03:38:41.668Z,102684.56
2024-01-20T03:41:08.151Z,102689.88
2024-01-20T03:43:34.632Z,102687.22
2024-01-20T03:46:01.115Z,102689.00
2024-01-20T03:48:27.751Z,102672.28
2024-01-20T03:50:54.388Z,102678.41
2024-01-20T03:53:21.025Z,102689.00
2024-01-20T03:55:47.533Z,102692.59
2024-01-20T03:58:14.092Z,102684.66
2024-01-20T04:00:40.624Z,102688.16
2024-01-20T04:03:07.235Z,102682.00
2024-01-20T04:05:33.935Z,102693.47
2024-01-20T04:08:00.423Z,102684.66
2024-01-20T04:10:26.979Z,102693.47
2024-01-20T04:12:53.487Z,102697.91
2024-01-20T04:15:19.987Z,102698.84
2024-01-20T04:17:46.600Z,102695.25
2024-01-20T04:20:13.199Z,102704.13
2024-01-20T04:22:39.709Z,102701.47
2024-01-20T04:25:06.859Z,102705.94
2024-01-20T04:27:35.168Z,102712.06
2024-01-20T04:30:01.842Z,102703.28
2024-01-20T04:32:28.551Z,102709.44
2024-01-20T04:34:55.022Z,102705.06
2024-01-20T04:37:21.744Z,102699.78
2024-01-20T04:39:48.242Z,102712.16
2024-01-20T04:42:14.760Z,102708.56
2024-01-20T04:44:41.319Z,102715.66
2024-01-20T04:47:07.848Z,102713.00
2024-01-20T04:49:34.596Z,102717.47
2024-01-20T04:52:03.177Z,102722.75
2024-01-20T04:54:30.189Z,102721.91
2024-01-20T04:56:58.445Z,102731.53
2024-01-20T04:59:25.476Z,102720.97
2024-01-20T05:01:53.647Z,102728.13
2024-01-20T05:04:20.293Z,102725.50
2024-01-20T05:06:47.218Z,102724.53
2024-01-20T05:09:14.700Z,102729.94
2024-01-20T05:11:41.312Z,102726.34
2024-01-20T05:14:08.752Z,102730.78
2024-01-20T05:16:35.366Z,102734.28
2024-01-20T05:19:02.812Z,102732.56
2024-01-20T05:21:29.466Z,102738.72
2024-01-20T05:23:56.313Z,102748.47
2024-01-20T05:26:22.806Z,102742.31
2024-01-20T05:28:49.219Z,102748.47
2024-01-20T05:31:16.272Z,102750.25
2024-01-20T05:33:42.856Z,102744.09
2024-01-20T05:36:12.133Z,102745.94
2024-01-20T05:38:38.615Z,102741.56
2024-01-20T05:41:05.318Z,102746.75
2024-01-20T05:43:31.931Z,102745.94
2024-01-20T05:45:58.368Z,102753.03
2024-01-20T05:48:25.131Z,102749.53
2024-01-20T05:50:51.573Z,102748.56
2024-01-20T05:53:19.362Z,102756.53
2024-01-20T05:55:45.822Z,102753.03
2024-01-20T05:58:12.270Z,102751.31
2024-01-20T06:00:39.006Z,102747.72
2024-01-20T06:03:05.687Z,102744.22
2024-01-20T06:05:32.156Z,102756.59
2024-01-20T06:07:58.656Z,102764.53
2024-01-20T06:10:25.633Z,102760.19
2024-01-20T06:12:52.111Z,102761.91
2024-01-20T06:15:18.661Z,102766.25
2024-01-20T06:17:45.170Z,102769.94
2024-01-20T06:20:11.778Z,102766.34
2024-01-20T06:22:40.278Z,102774.28
2024-01-20T06:25:07.109Z,102768.13
2024-01-20T06:27:34.010Z,102762.00
2024-01-20T06:30:00.914Z,102769.94
2024-01-20T06:32:29.320Z,102775.22
2024-01-20T06:34:55.786Z,102767.28
2024-01-20T06:37:22.245Z,102771.72
2024-01-20T06:39:48.707Z,102769.94
2024-01-20T06:42:15.756Z,102771.72
2024-01-20T06:44:42.191Z,102767.28
2024-01-20T06:47:09.041Z,102767.38
2024-01-20T06:49:39.618Z,102767.38
2024-01-20T06:52:06.764Z,102768.22
2024-01-20T06:54:33.195Z,102770.88
2024-01-20T06:56:59.663Z,102778.81
2024-01-20T06:59:26.160Z,102790.34
2024-01-20T07:01:52.611Z,102792.13
2024-01-20T07:04:19.078Z,102790.34
2024-01-20T07:06:46.360Z,102783.25
2024-01-20T07:09:12.942Z,102800.06
2024-01-20T07:11:39.710Z,102792.97
2024-01-20T07:14:06.233Z,102789.47
2024-01-20T07:16:32.705Z,102780.69
2024-01-20T07:18:59.354Z,102778.91
2024-01-20T07:21:25.970Z,102786.84
2024-01-20T07:23:52.470Z,102788.63
2024-01-20T07:26:19.272Z,102779.84
2024-01-20T07:28:45.774Z,102794.88
2024-01-20T07:31:13.279Z,102797.50
2024-01-20T07:33:41.639Z,102804.50
2024-01-20T07:36:08.324Z,102801.00
2024-01-20T07:38:34.828Z,102803.66
2024-01-20T07:41:01.395Z,102798.38
2024-01-20T07:43:27.926Z,102808.09
2024-01-20T07:45:55.535Z,102804.59
2024-01-20T07:48:22.344Z,102812.53
2024-01-20T07:50:49.626Z,102813.38
2024-01-20T07:53:16.209Z,102819.63
2024-01-20T07:55:43.561Z,102816.13
2024-01-20T07:58:10.067Z,102814.34
2024-01-20T08:00:36.856Z,102823.13
2024-01-20T08:03:04.297Z,102816.97
2024-01-20T08:05:33.634Z,102816.97
2024-01-20T08:08:01.820Z,102818.78
2024-01-20T08:10:28.307Z,102816.13
2024-01-20T08:12:54.770Z,102812.63
2024-01-20T08:15:21.349Z,102809.97
2024-01-20T08:17:47.939Z,102806.47
2024-01-20T08:20:14.540Z,102814.41
2024-01-20T08:22:41.268Z,102812.72
2024-01-20T08:25:08.207Z,102825.94
2024-01-20T08:27:34.902Z,102821.50
2024-01-20T08:30:01.806Z,102834.72
2024-01-20T08:32:28.419Z,102830.28
2024-01-20T08:34:55.009Z,102833.88
2024-01-20T08:37:21.961Z,102830.28
2024-01-20T08:39:48.780Z,102830.28
2024-01-20T08:42:15.336Z,102832.94
2024-01-20T08:44:41.837Z,102833.88
2024-01-20T08:47:08.485Z,102837.47
2024-01-20T08:49:34.934Z,102849.75
2024-01-20T08:52:01.465Z,102849.75
2024-01-20T08:54:27.979Z,102849.75
2024-01-20T08:56:54.596Z,102848.91
2024-01-20T08:59:21.115Z,102849.75
2024-01-20T09:01:47.662Z,102844.56
2024-01-20T09:04:14.731Z,102846.25
2024-01-20T09:06:41.423Z,102856.84
2024-01-20T09:09:08.153Z,102861.28
2024-01-20T09:11:34.891Z,102864.88
2024-01-20T09:14:01.420Z,102863.06
2024-01-20T09:16:27.900Z,102866.56
2024-01-20T09:18:54.434Z,102870.16
2024-01-20T09:21:21.062Z,102868.38
2024-01-20T09:23:47.716Z,102881.59
2024-01-20T09:26:14.239Z,102875.47
2024-01-20T09:28:40.671Z,102888.69
2024-01-20T09:31:07.087Z,102899.28
2024-01-20T09:33:33.713Z,102899.28
2024-01-20T09:36:00.412Z,102894.91
2024-01-20T09:38:29.562Z,102897.56
2024-01-20T09:40:59.848Z,102907.22
2024-01-20T09:43:26.536Z,102899.34
2024-01-20T09:45:53.928Z,102896.72
2024-01-20T09:48:20.704Z,102894.06
2024-01-20T09:50:48.968Z,102891.41
2024-01-20T09:53:17.056Z,102893.22
2024-01-20T09:55:44.865Z,102894.91
2024-01-20T09:58:13.381Z,102892.34
2024-01-20T10:00:41.350Z,102900.22
2024-01-20T10:03:10.816Z,102898.50
2024-01-20T10:05:38.535Z,102904.66
2024-01-20T10:08:08.373Z,102909.94
2024-01-20T10:10:35.198Z,102912.59
2024-01-20T10:13:02.150Z,102915.22
2024-01-20T10:15:34.074Z,102907.28
2024-01-20T10:18:07.443Z,102909.94
2024-01-20T10:20:37.123Z,102907.28
2024-01-20T10:23:08.591Z,102912.59
2024-01-20T10:25:35.510Z,102912.66
2024-01-20T10:28:02.050Z,102911.72
2024-01-20T10:30:30.253Z,102910.03
2024-01-20T10:33:08.718Z,102920.63
2024-01-20T10:35:37.363Z,102923.25
2024-01-20T10:38:10.523Z,102923.25
2024-01-20T10:40:41.525Z,102931.19
2024-01-20T10:43:17.191Z,102926.75
2024-01-20T10:45:54.377Z,102930.38
2024-01-20T10:48:26.204Z,102924.13
2024-01-20T10:50:57.947Z,102920.63
2024-01-20T10:53:26.349Z,102926.75
2024-01-20T10:55:53.118Z,102917.13
2024-01-20T10:58:28.713Z,102922.44
2024-01-20T11:00:55.963Z,102919.78
2024-01-20T11:03:23.324Z,102918.94
2024-01-20T11:05:49.910Z,102920.72
2024-01-20T11:08:27.724Z,102930.38
2024-01-20T11:10:55.542Z,102926.88
2024-01-20T11:13:27.437Z,102920.72
2024-01-20T11:15:54.347Z,102922.53
2024-01-20T11:18:23.184Z,102926.03
2024-01-20T11:21:01.182Z,102913.63
2024-01-20T11:23:28.054Z,102907.50
2024-01-20T11:25:55.763Z,102913.72
2024-01-20T11:28:32.884Z,102904.84
2024-01-20T11:31:00.870Z,102903.13
2024-01-20T11:33:28.078Z,102903.13
2024-01-20T11:35:54.801Z,102903.13
2024-01-20T11:38:21.705Z,102901.34
2024-01-20T11:40:58.607Z,102899.63
2024-01-20T11:43:25.110Z,102897.84
2024-01-20T11:45:51.627Z,102895.19
2024-01-20T11:48:19.338Z,102887.25
2024-01-20T11:50:46.188Z,102881.97
2024-01-20T11:53:13.079Z,102880.19
2024-01-20T11:55:39.530Z,102878.47
2024-01-20T11:58:06.027Z,102871.31
2024-01-20T12:00:32.578Z,102873.19
2024-01-20T12:03:01.205Z,102862.59
2024-01-20T12:05:27.817Z,102864.31
2024-01-20T12:07:54.441Z,102863.44
2024-01-20T12:10:20.858Z,102868.75
2024-01-20T12:12:47.346Z,102853.81
2024-01-20T12:15:16.469Z,102859.00
2024-01-20T12:17:43.094Z,102866.09
2024-01-20T12:20:10.843Z,102853.81
2024-01-20T12:22:38.318Z,102854.66
2024-01-20T12:25:06.196Z,102849.28
2024-01-20T12:27:32.836Z,102848.50
2024-01-20T12:29:59.585Z,102845.00
2024-01-20T12:32:26.292Z,102837.06
2024-01-20T12:34:53.768Z,102835.28
2024-01-20T12:37:20.231Z,102836.13
2024-01-20T12:39:46.666Z,102837.91
2024-01-20T12:42:13.167Z,102840.56
2024-01-20T12:44:39.659Z,102833.56
2024-01-20T12:47:06.104Z,102827.34
2024-01-20T12:49:32.671Z,102835.28
2024-01-20T12:51:59.403Z,102827.34
2024-01-20T12:54:25.991Z,102834.41
2024-01-20T12:56:53.516Z,102829.97
2024-01-20T12:59:20.064Z,102818.53
2024-01-20T13:01:47.155Z,102811.56
2024-01-20T13:04:13.653Z,102815.91
2024-01-20T13:06:40.217Z,102815.03
2024-01-20T13:09:10.170Z,102814.19
2024-01-20T13:11:40.085Z,102807.09
2024-01-20T13:14:06.576Z,102801.81
2024-01-20T13:16:33.057Z,102806.25
2024-01-20T13:18:59.905Z,102812.41
2024-01-20T13:21:29.563Z,102811.56
2024-01-20T13:23:56.203Z,102806.25
2024-01-20T13:26:23.718Z,102799.16
2024-01-20T13:28:50.219Z,102808.91
2024-01-20T13:31:18.136Z,102807.09
2024-01-20T13:33:45.379Z,102806.25
2024-01-20T13:36:11.996Z,102795.66
2024-01-20T13:38:39.332Z,102802.75
2024-01-20T13:41:06.689Z,102797.47
2024-01-20T13:43:33.762Z,102797.47
2024-01-20T13:46:00.814Z,102800.13
2024-01-20T13:48:27.474Z,102791.22
2024-01-20T13:50:54.100Z,102803.59
2024-01-20T13:53:21.151Z,102797.47
2024-01-20T13:55:47.659Z,102797.47
2024-01-20T13:58:14.168Z,102800.13
2024-01-20T14:00:41.503Z,102800.97
2024-01-20T14:03:08.132Z,102794.81
2024-01-20T14:05:34.619Z,102794.81
2024-01-20T14:08:01.106Z,102795.66
2024-01-20T14:10:27.557Z,102797.47
2024-01-20T14:12:54.058Z,102793.97
2024-01-20T14:15:20.579Z,102792.16
2024-01-20T14:17:47.888Z,102789.53
2024-01-20T14:20:14.514Z,102786.88
2024-01-20T14:22:41.558Z,102784.22
2024-01-20T14:25:08.418Z,102790.38
2024-01-20T14:27:35.469Z,102794.81
2024-01-20T14:30:02.228Z,102783.38
2024-01-20T14:32:28.706Z,102788.66
2024-01-20T14:34:55.366Z,102790.38
2024-01-20T14:37:22.004Z,102798.31
2024-01-20T14:39:48.491Z,102788.66
2024-01-20T14:42:15.793Z,102796.59
2024-01-20T14:44:42.541Z,102786.03
2024-01-20T14:47:10.117Z,102787.81
2024-01-20T14:49:36.741Z,102793.97
2024-01-20T14:52:03.417Z,102790.47
2024-01-20T14:54:29.996Z,102795.75
2024-01-20T14:56:57.597Z,102799.34
2024-01-20T14:59:24.701Z,102800.97
2024-01-20T15:01:51.168Z,102799.25
2024-01-20T15:04:17.764Z,102807.19
2024-01-20T15:06:44.585Z,102798.41
2024-01-20T15:09:11.542Z,102807.19
2024-01-20T15:11:38.225Z,102806.34
2024-01-20T15:14:08.704Z,102804.63
2024-01-20T15:16:36.411Z,102802.84
2024-01-20T15:19:03.204Z,102798.41
2024-01-20T15:21:29.876Z,102802.84
2024-01-20T15:23:56.389Z,102804.63
2024-01-20T15:26:22.875Z,102805.47
2024-01-20T15:28:49.385Z,102802.00
2024-01-20T15:31:16.714Z,102796.69
2024-01-20T15:33:43.409Z,102802.00
2024-01-20T15:36:10.626Z,102799.34
2024-01-20T15:38:37.163Z,102800.28
2024-01-20T15:41:03.631Z,102792.34
2024-01-20T15:43:30.228Z,102793.19
2024-01-20T15:45:56.794Z,102791.50
2024-01-20T15:48:23.327Z,102796.69
2024-01-20T15:50:50.622Z,102795.84
2024-01-20T15:53:17.100Z,102807.28
2024-01-20T15:55:43.615Z,102804.63
2024-01-20T15:58:10.385Z,102802.00
2024-01-20T16:00:37.002Z,102810.00
2024-01-20T16:03:04.905Z,102813.41
2024-01-20T16:05:31.687Z,102812.56
2024-01-20T16:07:58.122Z,102803.88
2024-01-20T16:10:24.637Z,102814.44
2024-01-20T16:12:51.247Z,102803.88
2024-01-20T16:15:17.782Z,102801.22
2024-01-20T16:17:44.576Z,102795.94
2024-01-20T16:20:11.558Z,102800.38
2024-01-20T16:22:39.546Z,102788.06
2024-01-20T16:25:06.721Z,102795.94
2024-01-20T16:27:35.873Z,102800.38
2024-01-20T16:30:02.619Z,102802.16
2024-01-20T16:32:29.148Z,102803.00
2024-01-20T16:34:55.655Z,102798.66
2024-01-20T16:37:22.420Z,102807.44
2024-01-20T16:39:49.393Z,102808.38
2024-01-20T16:42:16.169Z,102812.75
2024-01-20T16:44:42.717Z,102806.59
2024-01-20T16:47:09.219Z,102797.81
2024-01-20T16:49:35.836Z,102801.38
2024-01-20T16:52:03.634Z,102798.75
2024-01-20T16:54:30.733Z,102801.38
2024-01-20T16:56:57.267Z,102800.44
2024-01-20T16:59:24.032Z,102791.66
2024-01-20T17:01:50.481Z,102794.31
2024-01-20T17:04:20.019Z,102789.88
2024-01-20T17:06:48.859Z,102784.56
2024-01-20T17:09:16.131Z,102793.44
2024-01-20T17:11:45.641Z,102783.81
2024-01-20T17:14:17.200Z,102782.88
2024-01-20T17:16:43.713Z,102792.59
2024-01-20T17:19:10.872Z,102789.09
2024-01-20T17:21:37.525Z,102791.75
2024-01-20T17:24:04.465Z,102791.75
2024-01-20T17:26:31.104Z,102790.88
2024-01-20T17:28:58.124Z,102795.25
2024-01-20T17:31:29.828Z,102781.16
2024-01-20T17:33:56.496Z,102774.16
2024-01-20T17:36:23.152Z,102764.44
2024-01-20T17:38:49.691Z,102769.72
2024-01-20T17:41:16.207Z,102767.94
2024-01-20T17:43:42.737Z,102760.94
2024-01-20T17:46:11.237Z,102758.28
2024-01-20T17:48:37.769Z,102750.34
2024-01-20T17:51:04.580Z,102756.59
2024-01-20T17:53:34.870Z,102758.28
2024-01-20T17:56:03.000Z,102759.22
2024-01-20T17:58:32.409Z,102753.94
2024-01-20T18:00:59.199Z,102754.78
2024-01-20T18:03:26.018Z,102756.59
2024-01-20T18:05:53.236Z,102761.03
2024-01-20T18:08:20.586Z,102765.50
2024-01-20T18:10:47.219Z,102764.53
2024-01-20T18:13:13.848Z,102773.31
2024-01-20T18:15:40.722Z,102767.16
2024-01-20T18:18:08.077Z,102752.25
2024-01-20T18:20:34.994Z,102745.16
2024-01-20T18:23:01.480Z,102746.00
2024-01-20T18:25:28.048Z,102750.44
2024-01-20T18:27:54.831Z,102757.56
2024-01-20T18:30:21.302Z,102761.03
2024-01-20T18:32:47.844Z,102760.19
2024-01-20T18:35:14.337Z,102766.31
2024-01-20T18:37:42.919Z,102767.16
2024-01-20T18:40:11.073Z,102774.25
2024-01-20T18:42:37.676Z,102769.06
2024-01-20T18:45:06.041Z,102768.22
2024-01-20T18:47:32.746Z,102757.56
2024-01-20T18:49:59.413Z,102762.84
2024-01-20T18:52:25.920Z,102755.72
2024-01-20T18:54:55.045Z,102757.66
2024-01-20T18:57:21.896Z,102759.34
2024-01-20T18:59:48.501Z,102749.72
2024-01-20T19:02:14.991Z,102749.72
2024-01-20T19:04:41.829Z,102745.28
2024-01-20T19:07:08.559Z,102746.22
2024-01-20T19:09:35.107Z,102743.56
2024-01-20T19:12:01.641Z,102744.50
2024-01-20T19:14:28.093Z,102742.72
2024-01-20T19:16:54.643Z,102748.00
2024-01-20T19:19:21.403Z,102743.66
2024-01-20T19:21:48.329Z,102741.84
2024-01-20T19:24:15.858Z,102752.44
2024-01-20T19:26:42.627Z,102745.44
2024-01-20T19:29:09.418Z,102744.50
2024-01-20T19:31:36.623Z,102746.28
2024-01-20T19:34:04.388Z,102739.22
2024-01-20T19:36:31.042Z,102732.22
2024-01-20T19:38:57.818Z,102726.94
2024-01-20T19:41:25.297Z,102724.28
2024-01-20T19:43:52.092Z,102712.81
2024-01-20T19:46:20.667Z,102723.41
2024-01-20T19:48:50.507Z,102715.47
2024-01-20T19:51:17.078Z,102711.97
2024-01-20T19:53:43.598Z,102712.81
2024-01-20T19:56:10.112Z,102708.47
2024-01-20T19:58:37.573Z,102703.16
2024-01-20T20:01:04.597Z,102716.41
2024-01-20T20:03:31.297Z,102716.41
2024-01-20T20:05:57.833Z,102712.91
2024-01-20T20:08:24.416Z,102705.81
2024-01-20T20:10:51.704Z,102699.66
2024-01-20T20:13:23.306Z,102696.16
2024-01-20T20:15:49.920Z,102690.78
2024-01-20T20:18:17.855Z,102685.59
2024-01-20T20:20:44.466Z,102667.06
2024-01-20T20:23:11.086Z,102675.94
2024-01-20T20:25:37.636Z,102658.28
2024-01-20T20:28:04.767Z,102660.09
2024-01-20T20:30:31.265Z,102649.50
2024-01-20T20:32:57.901Z,102661.78
2024-01-20T20:35:24.816Z,102661.88
2024-01-20T20:37:51.295Z,102670.66
2024-01-20T20:40:17.801Z,102664.50
2024-01-20T20:42:44.452Z,102663.56
2024-01-20T20:45:11.717Z,102659.22
2024-01-20T20:47:38.545Z,102661.88
2024-01-20T20:50:06.598Z,102661.88
2024-01-20T20:52:33.396Z,102652.22
2024-01-20T20:54:59.974Z,102658.38
2024-01-20T20:57:26.673Z,102668.09
2024-01-20T20:59:53.380Z,102660.16
2024-01-20T21:02:19.870Z,102654.88
2024-01-20T21:04:46.572Z,102645.25
2024-01-20T21:07:13.682Z,102643.44
2024-01-20T21:09:42.892Z,102634.66
2024-01-20T21:12:11.956Z,102638.06
2024-01-20T21:14:39.925Z,102615.28
2024-01-20T21:17:08.110Z,102615.28
2024-01-20T21:19:34.955Z,102608.22
2024-01-20T21:22:01.647Z,102603.84
2024-01-20T21:24:29.955Z,102598.56
2024-01-20T21:26:56.416Z,102594.97
2024-01-20T21:29:25.600Z,102591.50
2024-01-20T21:31:52.107Z,102596.88
2024-01-20T21:34:18.648Z,102603.00
2024-01-20T21:36:45.244Z,102605.66
2024-01-20T21:39:11.898Z,102603.84
2024-01-20T21:41:38.460Z,102595.06
2024-01-20T21:44:05.194Z,102594.22
2024-01-20T21:46:31.650Z,102586.38
2024-01-20T21:48:58.267Z,102585.44
2024-01-20T21:51:24.849Z,102583.63
2024-01-20T21:53:51.315Z,102574.00
2024-01-20T21:56:17.871Z,102584.59
2024-01-20T21:58:45.214Z,102573.16
2024-01-20T22:01:11.887Z,102581.94
2024-01-20T22:03:38.419Z,102570.41
2024-01-20T22:06:05.367Z,102576.66
2024-01-20T22:08:31.922Z,102580.16
2024-01-20T22:10:58.474Z,102581.09
2024-01-20T22:13:27.213Z,102577.59
2024-01-20T22:15:53.825Z,102566.06
2024-01-20T22:18:20.532Z,102543.22
2024-01-20T22:20:47.065Z,102542.25
2024-01-20T22:23:14.106Z,102529.97
2024-01-20T22:25:41.080Z,102539.72
2024-01-20T22:28:07.545Z,102535.28
2024-01-20T22:30:34.074Z,102522.13
2024-01-20T22:33:01.120Z,102513.25
2024-01-20T22:35:30.517Z,102516.75
2024-01-20T22:37:57.512Z,102508.09
2024-01-20T22:40:24.694Z,102510.63
2024-01-20T22:42:51.534Z,102504.47
2024-01-20T22:45:18.153Z,102493.03
2024-01-20T22:47:46.104Z,102489.59
2024-01-20T22:50:12.920Z,102489.59
2024-01-20T22:52:40.901Z,102482.47
2024-01-20T22:55:07.907Z,102465.78
2024-01-20T22:57:34.492Z,102477.19
2024-01-20T23:00:00.993Z,102457.84
2024-01-20T23:02:27.473Z,102463.13
2024-01-20T23:04:55.548Z,102473.72
2024-01-20T23:07:23.023Z,102464.94
2024-01-20T23:09:49.568Z,102466.72
2024-01-20T23:12:17.372Z,102454.34
2024-01-20T23:14:45.232Z,102462.28
2024-01-20T23:17:11.960Z,102454.34
2024-01-20T23:19:38.465Z,102443.78
2024-01-20T23:22:05.770Z,102442.91
2024-01-20T23:24:32.488Z,102443.78
2024-01-20T23:26:59.051Z,102429.69
2024-01-20T23:29:26.136Z,102435.00
2024-01-20T23:31:52.875Z,102435.84
2024-01-20T23:34:19.718Z,102427.06
2024-01-20T23:36:46.352Z,102426.22
2024-01-20T23:39:14.848Z,102427.91
2024-01-20T23:41:41.865Z,102417.44
2024-01-20T23:44:08.310Z,102418.28
2024-01-20T23:46:34.788Z,102419.13
2024-01-20T23:49:01.311Z,102421.88
2024-01-20T23:51:27.883Z,102421.78
2024-01-20T23:53:54.397Z,102414.78
2024-01-20T23:56:20.811Z,102420.06
2024-01-20T23:58:47.338Z,102421.88
